Time;durP1;ratioP1;P1;durP2;ratioP2;P2;SDS_P1;SDS_P2;PMS_P1;PMS_P2;Temp;Humidity;BMP_temperature;BMP_pressure;BME280_temperature;BME280_humidity;BME280_pressure;Samples;Min_cycle;Max_cycle;Signal;HPM_P1;HPM_P2
2023/06/21 00:01:01;;;;;;;5.35;3.70;;;;;;;14.53;63.08;150938.03;5062845;28;20325;-65
2023/06/21 00:03:27;;;;;;;4.82;3.95;;;;;;;14.49;64.30;150927.75;5062947;28;20025;-65
2023/06/21 00:05:53;;;;;;;4.70;4.05;;;;;;;14.39;64.09;150902.03;5061578;28;20108;-65
2023/06/21 00:08:18;;;;;;;8.93;4.07;;;;;;;14.31;64.43;150882.75;5062758;28;20086;-65
2023/06/21 00:10:44;;;;;;;7.55;4.18;;;;;;;14.34;63.78;150890.47;5062565;28;20044;-66
2023/06/21 00:13:09;;;;;;;8.38;4.20;;;;;;;14.39;64.06;150902.03;5062819;28;20143;-64
2023/06/21 00:15:36;;;;;;;6.55;4.53;;;;;;;14.28;64.44;150876.31;5062753;28;20096;-65
2023/06/21 00:18:02;;;;;;;8.00;4.70;;;;;;;14.33;64.63;150889.16;5062691;28;20028;-66
2023/06/21 00:20:28;;;;;;;7.90;4.85;;;;;;;14.35;64.87;150893.06;5062429;28;20118;-64
2023/06/21 00:22:55;;;;;;;7.65;4.65;;;;;;;14.36;64.26;150894.31;5062474;28;20040;-64
2023/06/21 00:25:23;;;;;;;6.88;5.07;;;;;;;14.26;64.45;150871.16;5062267;28;20356;-64
2023/06/21 00:27:49;;;;;;;6.78;4.55;;;;;;;14.15;64.15;150844.16;5062469;28;20225;-64
2023/06/21 00:30:15;;;;;;;14.27;5.20;;;;;;;14.29;64.64;150877.59;5061972;28;20070;-64
2023/06/21 00:32:40;;;;;;;7.82;5.43;;;;;;;14.27;65.55;150873.72;5062559;28;20317;-65
2023/06/21 00:35:06;;;;;;;7.00;5.50;;;;;;;14.27;64.74;150873.72;5061911;28;20029;-65
2023/06/21 00:37:32;;;;;;;9.63;5.10;;;;;;;14.26;65.40;150869.88;5063150;28;20047;-64
2023/06/21 00:39:58;;;;;;;11.82;5.38;;;;;;;14.24;64.71;150866.03;5062903;28;20025;-64
2023/06/21 00:42:24;;;;;;;10.98;5.18;;;;;;;13.94;65.00;150791.44;5062985;28;20025;-65
2023/06/21 00:44:49;;;;;;;9.70;5.43;;;;;;;14.24;65.21;150864.75;5063001;28;20257;-65
2023/06/21 00:47:15;;;;;;;9.85;5.68;;;;;;;14.21;65.13;150858.31;5062859;28;20036;-64
2023/06/21 00:49:40;;;;;;;8.50;5.50;;;;;;;14.18;65.25;150850.59;5061923;28;20025;-64
2023/06/21 00:52:07;;;;;;;8.93;5.40;;;;;;;14.15;65.91;150842.84;5062988;28;20047;-64
2023/06/21 00:54:35;;;;;;;9.35;5.30;;;;;;;14.18;65.69;150850.59;5063094;28;20025;-64
2023/06/21 00:57:04;;;;;;;8.63;5.03;;;;;;;14.17;65.71;150846.75;5062723;28;20021;-64
2023/06/21 00:59:30;;;;;;;11.63;5.70;;;;;;;14.19;65.25;150851.88;5063405;28;20104;-64
2023/06/21 01:02:00;;;;;;;10.32;5.97;;;;;;;14.15;66.20;150844.16;5063162;28;20123;-64
2023/06/21 01:04:31;;;;;;;8.35;5.55;;;;;;;14.12;65.38;150835.16;5062863;28;20031;-64
2023/06/21 01:07:31;;;;;;;7.70;4.90;;;;;;;14.14;65.92;150841.59;5062773;28;20135;-64
2023/06/21 01:10:31;;;;;;;9.50;5.57;;;;;;;14.14;66.05;150840.31;5062822;28;20314;-64
2023/06/21 01:13:15;;;;;;;8.27;5.35;;;;;;;14.15;65.64;150842.84;5062847;28;20037;-64
2023/06/21 01:15:47;;;;;;;7.38;5.15;;;;;;;13.96;66.23;150795.28;5062976;28;20041;-64
2023/06/21 01:18:15;;;;;;;9.98;5.63;;;;;;;14.13;65.76;150839.00;5062727;28;20063;-65
2023/06/21 01:20:44;;;;;;;9.80;5.80;;;;;;;14.18;65.30;150849.28;5066551;28;20045;-64
2023/06/21 01:23:32;;;;;;;11.65;6.47;;;;;;;14.21;65.45;150858.31;5065945;28;20025;-64
2023/06/21 01:26:03;;;;;;;8.63;5.07;;;;;;;14.19;65.84;150851.88;5065103;28;20105;-63
2023/06/21 01:28:51;;;;;;;12.23;4.90;;;;;;;14.17;65.98;150848.03;5066574;28;20025;-63
2023/06/21 01:31:17;;;;;;;6.75;4.88;;;;;;;14.09;65.71;150827.44;5066148;28;20032;-64
2023/06/21 01:33:42;;;;;;;7.68;5.13;;;;;;;13.96;65.99;150795.28;5064697;28;20225;-64
2023/06/21 01:36:12;;;;;;;12.38;5.32;;;;;;;14.05;65.98;150817.16;5066028;28;20110;-64
2023/06/21 01:38:37;;;;;;;10.52;6.43;;;;;;;14.13;65.67;150837.72;5066411;28;20032;-64
2023/06/21 01:41:03;;;;;;;7.60;4.88;;;;;;;14.12;65.89;150835.16;5065976;28;20043;-65
2023/06/21 01:43:31;;;;;;;5.47;4.88;;;;;;;14.10;65.74;150831.28;5064382;28;20302;-64
2023/06/21 01:45:59;;;;;;;7.72;5.32;;;;;;;14.09;65.87;150827.44;5059871;28;20033;-64
2023/06/21 01:48:25;;;;;;;8.25;4.75;;;;;;;14.12;65.87;150835.16;5066099;28;20033;-65
2023/06/21 01:50:51;;;;;;;7.32;5.20;;;;;;;14.13;65.00;150839.00;5066094;28;20221;-65
2023/06/21 01:53:19;;;;;;;8.18;4.43;;;;;;;14.11;65.67;150832.59;5065687;28;20033;-64
2023/06/21 01:55:48;;;;;;;8.07;4.55;;;;;;;14.13;65.29;150839.00;5065969;28;20318;-65
2023/06/21 01:58:15;;;;;;;5.15;4.65;;;;;;;14.22;65.17;150859.59;5060830;28;20062;-64
2023/06/21 02:00:42;;;;;;;7.55;4.82;;;;;;;14.22;65.01;150860.84;5065781;28;20033;-65
2023/06/21 02:03:10;;;;;;;5.63;4.53;;;;;;;14.24;65.55;150866.03;5065653;28;20033;-64
2023/06/21 02:05:36;;;;;;;8.65;6.00;;;;;;;14.28;65.47;150875.00;5065797;28;20017;-66
2023/06/21 02:08:07;;;;;;;17.08;10.75;;;;;;;14.34;65.04;150890.47;5065545;28;20051;-66
2023/06/21 02:10:32;;;;;;;14.57;10.73;;;;;;;14.37;64.45;150898.16;5065439;28;20052;-65
2023/06/21 02:12:58;;;;;;;7.85;5.70;;;;;;;14.40;65.28;150904.63;5065464;28;20095;-65
2023/06/21 02:15:24;;;;;;;9.68;6.35;;;;;;;14.44;65.51;150916.19;5065436;28;20024;-64
2023/06/21 02:17:51;;;;;;;9.27;5.93;;;;;;;14.50;64.61;150930.31;5065641;28;20047;-65
2023/06/21 02:20:18;;;;;;;6.95;5.28;;;;;;;14.59;64.62;150953.50;5065524;28;20029;-65
2023/06/21 02:22:44;;;;;;;6.80;5.82;;;;;;;14.63;64.63;150963.78;5065149;28;20032;-65
2023/06/21 02:25:11;;;;;;;7.80;6.05;;;;;;;14.69;64.35;150976.69;5065419;28;20055;-65
2023/06/21 02:27:37;;;;;;;9.75;6.07;;;;;;;14.66;64.81;150970.25;5065378;28;20302;-66
2023/06/21 02:30:04;;;;;;;14.73;6.78;;;;;;;14.75;65.34;150992.09;5064321;28;20055;-64
2023/06/21 02:32:30;;;;;;;16.85;6.95;;;;;;;14.57;65.38;150948.34;5065159;28;20025;-65
2023/06/21 02:34:55;;;;;;;17.33;7.07;;;;;;;14.81;65.27;151007.56;5065085;28;20040;-65
2023/06/21 02:37:21;;;;;;;13.30;6.65;;;;;;;14.89;65.42;151028.13;5065154;28;20041;-65
2023/06/21 02:39:47;;;;;;;13.23;6.75;;;;;;;14.87;64.94;151023.00;5065207;28;20033;-65
2023/06/21 02:42:12;;;;;;;12.82;6.72;;;;;;;14.92;65.86;151035.88;5063778;28;20316;-64
2023/06/21 02:44:38;;;;;;;10.95;7.80;;;;;;;14.94;65.99;151041.00;5065073;28;20298;-66
2023/06/21 02:47:04;;;;;;;9.68;6.70;;;;;;;15.00;65.23;151055.16;5064788;28;20020;-64
2023/06/21 02:49:31;;;;;;;14.07;6.78;;;;;;;14.97;65.27;151047.44;5065074;28;20210;-65
2023/06/21 02:51:57;;;;;;;10.98;6.32;;;;;;;14.98;66.15;151051.31;5064990;28;20033;-65
2023/06/21 02:54:23;;;;;;;9.95;7.32;;;;;;;14.97;66.13;151048.72;5063766;28;20085;-65
2023/06/21 02:56:48;;;;;;;11.18;6.82;;;;;;;14.93;65.77;151038.41;5064811;28;20045;-65
2023/06/21 02:59:14;;;;;;;11.55;7.03;;;;;;;14.94;66.09;151041.00;5064605;28;20029;-66
2023/06/21 03:01:39;;;;;;;8.65;6.20;;;;;;;14.78;66.43;151001.13;5065182;28;20194;-66
2023/06/21 03:04:05;;;;;;;10.13;6.10;;;;;;;15.05;65.49;151066.72;5064585;28;20217;-65
2023/06/21 03:06:33;;;;;;;10.13;6.68;;;;;;;15.13;64.06;151087.31;5064682;28;20031;-67
2023/06/21 03:08:59;;;;;;;8.65;6.40;;;;;;;15.17;64.90;151098.91;5064360;28;20322;-65
2023/06/21 03:11:25;;;;;;;12.55;6.45;;;;;;;15.25;64.84;151118.22;5063150;28;20039;-64
2023/06/21 03:13:50;;;;;;;8.20;5.80;;;;;;;15.29;64.02;151127.22;5064671;28;20216;-64
2023/06/21 03:16:16;;;;;;;9.48;6.40;;;;;;;15.24;64.87;151115.63;5064471;28;20028;-64
2023/06/21 03:18:41;;;;;;;8.50;5.72;;;;;;;15.40;64.04;151154.25;5064559;28;20024;-64
2023/06/21 03:21:08;;;;;;;10.32;6.80;;;;;;;15.60;63.29;151204.44;5064099;28;20328;-63
2023/06/21 03:23:34;;;;;;;8.80;6.22;;;;;;;15.81;62.49;151257.28;5064408;28;20045;-63
2023/06/21 03:25:59;;;;;;;8.20;5.78;;;;;;;16.15;61.39;151342.28;5064371;28;20201;-65
2023/06/21 03:28:25;;;;;;;11.38;5.88;;;;;;;16.20;60.82;151356.44;5064425;28;20102;-65
2023/06/21 03:30:50;;;;;;;11.95;6.30;;;;;;;16.21;61.00;151357.72;5064334;28;20047;-65
2023/06/21 03:33:16;;;;;;;10.07;5.80;;;;;;;16.16;61.04;151344.81;5063905;28;20024;-65
2023/06/21 03:35:42;;;;;;;10.32;6.03;;;;;;;16.24;60.54;151365.44;5063999;28;20328;-64
2023/06/21 03:38:08;;;;;;;10.45;5.85;;;;;;;16.30;57.15;151380.88;5062387;28;20028;-64
2023/06/21 03:40:34;;;;;;;8.75;5.38;;;;;;;16.36;57.79;151396.34;5063538;28;20333;-64
2023/06/21 03:42:59;;;;;;;7.07;5.40;;;;;;;16.34;57.37;151391.19;5063728;28;20057;-64
2023/06/21 03:45:25;;;;;;;5.95;5.07;;;;;;;16.35;56.12;151392.50;5063561;28;20029;-65
2023/06/21 03:47:50;;;;;;;9.07;5.93;;;;;;;16.41;55.69;151406.66;5063972;28;20368;-65
2023/06/21 03:50:17;;;;;;;12.60;5.43;;;;;;;16.43;55.05;151411.78;5062724;28;20032;-64
2023/06/21 03:52:43;;;;;;;8.88;5.45;;;;;;;16.50;54.96;151431.16;5063727;28;20070;-65
2023/06/21 03:55:09;;;;;;;10.60;5.78;;;;;;;16.59;54.50;151451.72;5063457;28;20229;-64
2023/06/21 03:57:35;;;;;;;14.00;7.07;;;;;;;16.46;54.50;151419.53;5063545;28;20051;-64
2023/06/21 04:00:02;;;;;;;15.98;8.30;;;;;;;16.61;54.29;151458.16;5063429;28;20202;-64
2023/06/21 04:02:31;;;;;;;13.45;6.82;;;;;;;16.60;54.43;151455.56;5063748;28;20028;-64
2023/06/21 04:04:56;;;;;;;15.38;7.07;;;;;;;16.63;53.40;151463.34;5063442;28;20333;-65
2023/06/21 04:07:23;;;;;;;15.00;7.10;;;;;;;16.74;54.06;151491.69;5063091;28;20308;-64
2023/06/21 04:09:49;;;;;;;17.20;7.07;;;;;;;16.79;53.41;151503.28;5063077;28;20045;-65
2023/06/21 04:12:15;;;;;;;7.95;5.65;;;;;;;16.81;52.71;151507.13;5063109;28;20059;-65
2023/06/21 04:14:40;;;;;;;8.63;5.43;;;;;;;16.94;53.73;151540.66;5063258;28;20056;-66
2023/06/21 04:17:06;;;;;;;7.28;5.00;;;;;;;16.89;53.89;151529.09;5047332;28;20198;-65
2023/06/21 04:19:32;;;;;;;6.13;4.20;;;;;;;16.92;53.62;151535.53;5061676;28;20032;-65
2023/06/21 04:21:57;;;;;;;8.65;4.50;;;;;;;16.95;53.29;151543.25;5063347;28;20024;-65
2023/06/21 04:24:23;;;;;;;6.43;4.40;;;;;;;17.06;53.88;151570.34;5062951;28;20048;-64
2023/06/21 04:26:48;;;;;;;5.57;4.38;;;;;;;17.10;54.73;151579.34;5055277;28;20063;-63
2023/06/21 04:29:18;;;;;;;7.72;4.22;;;;;;;17.13;54.87;151587.06;5062962;28;20075;-64
2023/06/21 04:31:44;;;;;;;7.88;4.30;;;;;;;17.09;55.40;151578.06;5054404;28;20059;-63
2023/06/21 04:34:09;;;;;;;8.70;4.18;;;;;;;17.20;53.97;151606.41;5062984;28;20056;-64
2023/06/21 04:36:35;;;;;;;7.00;4.65;;;;;;;17.02;52.89;151561.28;5058062;28;20021;-65
2023/06/21 04:39:02;;;;;;;12.63;4.53;;;;;;;16.99;53.65;151552.28;5063121;28;20313;-65
2023/06/21 04:41:27;;;;;;;6.20;4.20;;;;;;;17.24;53.64;151616.72;5062771;28;20044;-65
2023/06/21 04:43:53;;;;;;;6.18;4.85;;;;;;;17.20;53.98;151606.41;5063169;28;20305;-67
2023/06/21 04:46:21;;;;;;;7.45;4.20;;;;;;;17.28;53.90;151625.72;5062913;28;20202;-66
2023/06/21 04:48:47;;;;;;;4.93;4.28;;;;;;;17.34;53.45;151639.91;5062884;28;20044;-64
2023/06/21 04:51:15;;;;;;;5.50;3.50;;;;;;;17.38;53.88;151651.50;5062695;28;20040;-65
2023/06/21 04:53:45;;;;;;;5.72;4.00;;;;;;;17.20;54.20;151605.09;5062729;28;20144;-64
2023/06/21 04:56:14;;;;;;;4.93;3.60;;;;;;;17.38;53.63;151651.50;5067118;28;20021;-66
2023/06/21 04:58:40;;;;;;;5.20;4.05;;;;;;;17.50;53.13;151679.84;5067037;28;20082;-66
2023/06/21 05:01:06;;;;;;;6.97;4.25;;;;;;;17.60;53.23;151705.66;5065481;28;20036;-65
2023/06/21 05:03:32;;;;;;;3.97;3.45;;;;;;;17.76;52.28;151746.88;5067013;28;20195;-66
2023/06/21 05:06:01;;;;;;;5.57;3.85;;;;;;;17.68;52.85;151726.25;5066957;28;20044;-66
2023/06/21 05:08:27;;;;;;;4.82;3.83;;;;;;;17.89;52.00;151779.13;5066601;28;20052;-66
2023/06/21 05:10:52;;;;;;;4.18;3.40;;;;;;;17.96;51.00;151794.63;5066871;28;20037;-64
2023/06/21 05:13:18;;;;;;;3.97;3.33;;;;;;;18.04;50.61;151816.59;5066583;28;20032;-65
2023/06/21 05:15:43;;;;;;;4.05;2.85;;;;;;;18.14;49.54;151839.78;5066654;28;20063;-65
2023/06/21 05:18:09;;;;;;;3.22;2.90;;;;;;;18.34;49.08;151890.06;5066489;28;20021;-65
2023/06/21 05:20:35;;;;;;;3.75;2.80;;;;;;;18.31;48.10;151882.34;5066739;28;20036;-65
2023/06/21 05:23:00;;;;;;;7.05;2.90;;;;;;;18.40;47.84;151905.56;5065538;28;20036;-65
2023/06/21 05:25:26;;;;;;;6.70;3.00;;;;;;;18.27;48.45;151874.59;5065009;28;20039;-65
2023/06/21 05:27:52;;;;;;;5.57;2.75;;;;;;;18.43;45.03;151914.59;5066644;28;20068;-65
2023/06/21 05:30:18;;;;;;;4.90;3.00;;;;;;;17.94;47.48;151792.09;5066473;28;20025;-64
2023/06/21 05:32:44;;;;;;;6.85;3.13;;;;;;;18.41;47.21;151909.44;5066263;28;20067;-64
2023/06/21 05:35:09;;;;;;;3.15;2.80;;;;;;;18.53;47.01;151939.09;5066356;28;20033;-64
2023/06/21 05:37:36;;;;;;;4.40;2.85;;;;;;;18.51;44.41;151932.63;5065586;28;20314;-66
2023/06/21 05:40:02;;;;;;;5.20;2.20;;;;;;;18.54;44.15;151940.38;5066256;28;20029;-64
2023/06/21 05:42:29;;;;;;;4.95;2.47;;;;;;;18.62;43.39;151962.28;5058624;28;20059;-65
2023/06/21 05:44:55;;;;;;;2.63;2.10;;;;;;;18.56;42.74;151945.56;5056527;28;20052;-66
2023/06/21 05:47:20;;;;;;;2.40;2.00;;;;;;;18.51;41.46;151932.63;5065804;28;20064;-65
2023/06/21 05:49:48;;;;;;;3.40;2.58;;;;;;;18.33;41.71;151887.47;5066401;28;20029;-64
2023/06/21 05:52:15;;;;;;;2.53;2.30;;;;;;;18.57;42.40;151948.09;5061482;28;20215;-64
2023/06/21 05:54:43;;;;;;;2.80;2.15;;;;;;;18.55;42.88;151944.22;5064967;28;20044;-67
2023/06/21 05:57:09;;;;;;;4.63;2.00;;;;;;;18.76;42.40;151995.84;5066076;28;20068;-66
2023/06/21 05:59:35;;;;;;;2.75;2.40;;;;;;;18.65;40.21;151967.47;5065765;28;20227;-64
2023/06/21 06:02:00;;;;;;;3.42;2.15;;;;;;;18.80;41.87;152006.19;5065867;28;20122;-65
2023/06/21 06:04:26;;;;;;;3.58;2.20;;;;;;;18.98;41.12;152051.38;5052404;28;20072;-67
2023/06/21 06:06:51;;;;;;;3.75;2.40;;;;;;;19.07;40.76;152073.28;5056305;28;20360;-64
2023/06/21 06:09:17;;;;;;;4.82;2.22;;;;;;;19.00;39.57;152056.56;5065678;28;20041;-65
2023/06/21 06:11:43;;;;;;;4.60;2.35;;;;;;;18.90;39.36;152030.75;5065740;28;20036;-65
2023/06/21 06:14:10;;;;;;;1.92;1.80;;;;;;;19.08;39.98;152075.88;5065820;28;20021;-64
2023/06/21 06:16:36;;;;;;;4.30;2.30;;;;;;;19.05;38.59;152068.16;5065469;28;20064;-64
2023/06/21 06:19:01;;;;;;;2.28;2.03;;;;;;;19.20;39.88;152106.88;5065023;28;20048;-65
2023/06/21 06:21:27;;;;;;;3.63;2.00;;;;;;;18.95;38.25;152044.94;5065262;28;20071;-66
2023/06/21 06:23:53;;;;;;;2.60;2.05;;;;;;;19.14;37.42;152092.69;5065404;28;20313;-64
2023/06/21 06:26:23;;;;;;;3.50;2.38;;;;;;;19.11;39.41;152084.94;5065538;28;20020;-65
2023/06/21 06:28:54;;;;;;;3.28;1.88;;;;;;;19.27;37.76;152123.66;5065258;28;20096;-66
2023/06/21 06:31:29;;;;;;;3.33;2.20;;;;;;;19.38;38.16;152152.06;5064457;28;20036;-64
2023/06/21 06:33:55;;;;;;;2.13;1.75;;;;;;;19.20;37.36;152105.59;5064846;28;20033;-65
2023/06/21 06:36:21;;;;;;;1.73;1.63;;;;;;;18.89;37.17;152029.44;5064690;28;20044;-65
2023/06/21 06:38:48;;;;;;;2.20;2.00;;;;;;;18.93;37.01;152038.50;5064927;28;20171;-65
2023/06/21 06:41:14;;;;;;;3.65;1.83;;;;;;;18.94;37.42;152042.34;5064975;28;20381;-66
2023/06/21 06:43:39;;;;;;;4.35;1.92;;;;;;;19.17;37.34;152097.81;5065250;28;20057;-66
2023/06/21 06:46:05;;;;;;;2.90;1.80;;;;;;;18.88;37.40;152026.84;5063773;28;20226;-65
2023/06/21 06:48:30;;;;;;;2.45;1.70;;;;;;;19.14;38.06;152091.41;5064882;28;20306;-66
2023/06/21 06:50:57;;;;;;;1.73;1.63;;;;;;;19.19;37.69;152104.28;5065016;28;20103;-65
2023/06/21 06:53:22;;;;;;;5.57;2.10;;;;;;;18.91;37.41;152034.63;5064810;28;20041;-66
2023/06/21 06:55:54;;;;;;;6.13;2.35;;;;;;;19.34;37.72;152140.41;5065017;28;20052;-66
2023/06/21 06:58:21;;;;;;;4.35;2.20;;;;;;;18.72;37.23;151986.81;5065010;28;20029;-64
2023/06/21 07:00:47;;;;;;;2.42;1.73;;;;;;;19.08;36.66;152075.88;5064450;28;20053;-64
2023/06/21 07:03:13;;;;;;;2.17;1.98;;;;;;;19.33;37.54;152139.13;5064330;28;20078;-64
2023/06/21 07:05:46;;;;;;;7.30;2.30;;;;;;;19.59;36.91;152203.66;5064386;28;20029;-65
2023/06/21 07:08:12;;;;;;;4.15;1.95;;;;;;;19.36;36.01;152146.88;5058336;28;20096;-65
2023/06/21 07:10:38;;;;;;;1.65;1.48;;;;;;;19.34;36.29;152141.72;5063851;28;20060;-64
2023/06/21 07:13:05;;;;;;;2.38;1.60;;;;;;;19.56;35.94;152197.19;5064274;28;20056;-64
2023/06/21 07:15:31;;;;;;;2.28;1.90;;;;;;;19.34;37.40;152140.41;5063746;28;20048;-65
2023/06/21 07:17:56;;;;;;;4.18;2.05;;;;;;;19.54;37.32;152190.75;5063423;28;20083;-65
2023/06/21 07:20:22;;;;;;;4.43;1.80;;;;;;;19.71;37.59;152233.34;5062312;28;20028;-64
2023/06/21 07:22:47;;;;;;;2.03;1.83;;;;;;;19.79;37.35;152255.34;5063645;28;20028;-65
2023/06/21 07:25:14;;;;;;;2.28;1.90;;;;;;;19.45;37.14;152170.13;5063197;28;20060;-64
2023/06/21 07:27:40;;;;;;;3.08;1.80;;;;;;;19.80;37.17;152256.66;5063737;28;20021;-64
2023/06/21 07:30:06;;;;;;;2.92;2.00;;;;;;;19.78;37.40;152251.41;5063785;28;20037;-64
2023/06/21 07:32:33;;;;;;;2.08;1.85;;;;;;;19.82;36.49;152263.13;5063112;28;20116;-63
2023/06/21 07:34:59;;;;;;;2.22;2.03;;;;;;;19.84;36.34;152267.00;5059540;28;20075;-65
2023/06/21 07:37:27;;;;;;;6.35;2.03;;;;;;;19.90;36.71;152281.19;5059180;28;20083;-63
2023/06/21 07:39:54;;;;;;;2.40;1.70;;;;;;;20.06;36.56;152321.22;5063755;28;20020;-64
2023/06/21 07:42:20;;;;;;;3.22;1.80;;;;;;;20.05;36.50;152319.94;5063655;28;20040;-64
2023/06/21 07:44:45;;;;;;;3.28;1.80;;;;;;;19.93;36.54;152288.94;5063840;28;20029;-64
2023/06/21 07:47:11;;;;;;;8.23;2.20;;;;;;;20.09;36.98;152328.94;5063629;28;20052;-64
2023/06/21 07:49:36;;;;;;;4.85;2.30;;;;;;;20.11;36.03;152334.09;5063529;28;20029;-65
2023/06/21 07:52:02;;;;;;;2.00;1.80;;;;;;;19.85;35.90;152268.25;5063633;28;20032;-65
2023/06/21 07:54:28;;;;;;;2.20;1.92;;;;;;;19.90;36.62;152281.19;5063518;28;20032;-65
2023/06/21 07:56:53;;;;;;;3.65;2.17;;;;;;;20.18;36.74;152352.22;5063290;28;20044;-64
2023/06/21 07:59:19;;;;;;;2.40;2.20;;;;;;;20.33;35.88;152389.63;5063188;28;20044;-64
2023/06/21 08:01:44;;;;;;;2.67;2.00;;;;;;;20.24;36.75;152366.41;5063282;28;20256;-64
2023/06/21 08:04:10;;;;;;;7.50;2.40;;;;;;;19.97;36.72;152299.25;5062234;28;20025;-65
2023/06/21 08:06:36;;;;;;;4.03;2.03;;;;;;;20.48;37.17;152428.41;5062989;28;20017;-64
2023/06/21 08:09:01;;;;;;;3.65;2.05;;;;;;;20.39;37.95;152403.84;5063266;28;20075;-65
2023/06/21 08:11:27;;;;;;;3.58;2.53;;;;;;;20.40;36.91;152407.72;5061926;28;20031;-64
2023/06/21 08:13:52;;;;;;;3.13;1.88;;;;;;;20.40;36.99;152407.72;5062028;28;20024;-65
2023/06/21 08:16:18;;;;;;;4.60;2.30;;;;;;;20.60;36.85;152458.09;5063288;28;20021;-66
2023/06/21 08:18:43;;;;;;;4.22;2.40;;;;;;;20.51;37.25;152436.13;5062695;28;20037;-65
2023/06/21 08:21:09;;;;;;;2.25;2.05;;;;;;;20.16;36.84;152347.03;5062540;28;20028;-64
2023/06/21 08:23:34;;;;;;;4.03;2.22;;;;;;;20.38;36.68;152402.56;5062375;28;20029;-64
2023/06/21 08:26:00;;;;;;;4.25;1.92;;;;;;;19.91;35.97;152283.75;5042032;28;20038;-65
2023/06/21 08:28:26;;;;;;;5.38;2.78;;;;;;;20.26;36.59;152371.56;5057230;28;20372;-64
2023/06/21 08:30:51;;;;;;;2.33;1.90;;;;;;;20.18;36.16;152353.50;5057250;28;20033;-64
2023/06/21 08:33:17;;;;;;;3.30;2.10;;;;;;;20.15;35.72;152344.44;5047170;28;20035;-64
2023/06/21 08:35:43;;;;;;;2.05;1.85;;;;;;;20.46;35.09;152423.19;5047154;28;20028;-64
2023/06/21 08:38:08;;;;;;;3.92;1.80;;;;;;;20.53;34.95;152441.28;5062925;28;20314;-65
2023/06/21 08:40:36;;;;;;;2.15;1.95;;;;;;;20.54;35.28;152442.59;5062433;28;20036;-64
2023/06/21 08:43:01;;;;;;;2.88;2.20;;;;;;;20.84;35.72;152518.84;5062778;28;20040;-64
2023/06/21 08:45:27;;;;;;;5.47;2.22;;;;;;;20.32;35.11;152387.03;5062506;28;20313;-65
2023/06/21 08:47:53;;;;;;;3.72;2.40;;;;;;;20.69;35.74;152480.09;5062993;28;20228;-65
2023/06/21 08:50:20;;;;;;;3.78;2.00;;;;;;;20.83;35.62;152516.25;5058309;28;20037;-65
2023/06/21 08:52:48;;;;;;;4.63;1.95;;;;;;;20.29;35.50;152379.31;5060555;28;20033;-64
2023/06/21 08:55:15;;;;;;;3.22;2.10;;;;;;;20.78;36.20;152503.38;5062332;28;20209;-64
2023/06/21 08:57:44;;;;;;;2.13;1.95;;;;;;;20.37;35.77;152398.69;5062489;28;20028;-64
2023/06/21 09:00:12;;;;;;;2.28;2.08;;;;;;;20.35;35.85;152396.09;5060509;28;20036;-64
2023/06/21 09:03:03;;;;;;;2.50;1.98;;;;;;;20.48;36.29;152428.41;5062279;28;20100;-65
2023/06/21 09:05:44;;;;;;;2.20;1.90;;;;;;;20.62;35.84;152461.97;5060619;28;20332;-65
2023/06/21 09:08:10;;;;;;;3.45;2.30;;;;;;;20.92;36.16;152538.25;5062370;28;20333;-65
2023/06/21 09:10:38;;;;;;;2.78;2.45;;;;;;;20.93;35.22;152539.53;5059673;28;20067;-65
2023/06/21 09:13:06;;;;;;;4.40;2.30;;;;;;;21.07;35.67;152574.44;5060857;28;20341;-65
2023/06/21 09:15:32;;;;;;;3.10;2.40;;;;;;;21.09;35.79;152579.59;5061001;28;20025;-65
2023/06/21 09:17:58;;;;;;;5.15;2.22;;;;;;;21.20;35.58;152608.00;5062169;28;20320;-65
2023/06/21 09:20:27;;;;;;;5.32;2.35;;;;;;;21.27;34.99;152626.09;5061107;28;20044;-65
2023/06/21 09:22:56;;;;;;;5.35;2.20;;;;;;;21.19;34.95;152606.72;5061474;28;20025;-65
2023/06/21 09:25:22;;;;;;;2.65;2.10;;;;;;;21.18;34.91;152604.13;5061782;28;20108;-63
2023/06/21 09:27:48;;;;;;;4.10;2.30;;;;;;;21.13;34.44;152589.91;5059712;28;20025;-65
2023/06/21 09:30:14;;;;;;;2.40;1.98;;;;;;;21.23;33.88;152614.47;5060588;28;20043;-64
2023/06/21 09:32:40;;;;;;;2.33;2.13;;;;;;;21.48;34.54;152679.09;5061917;28;20056;-65
2023/06/21 09:35:06;;;;;;;2.83;2.30;;;;;;;20.93;34.33;152539.53;5055268;28;20071;-65
2023/06/21 09:37:35;;;;;;;2.70;2.05;;;;;;;20.82;34.41;152512.38;5057750;28;20063;-65
2023/06/21 09:40:03;;;;;;;3.75;2.25;;;;;;;21.06;34.68;152573.09;5062559;28;20102;-66
2023/06/21 09:42:29;;;;;;;3.30;2.33;;;;;;;21.45;35.26;152671.34;5065776;28;20074;-64
2023/06/21 09:44:56;;;;;;;6.65;2.25;;;;;;;21.11;34.09;152586.06;5065608;28;20280;-65
2023/06/21 09:47:22;;;;;;;3.08;2.35;;;;;;;21.23;34.81;152615.75;5065850;28;20036;-64
2023/06/21 09:49:48;;;;;;;3.08;2.17;;;;;;;21.46;33.68;152672.63;5064834;28;20029;-64
2023/06/21 09:52:15;;;;;;;3.03;2.00;;;;;;;21.51;34.28;152686.91;5065633;28;20041;-64
2023/06/21 09:54:44;;;;;;;4.03;2.08;;;;;;;21.58;34.70;152702.38;5065647;28;20028;-64
2023/06/21 09:57:10;;;;;;;2.92;2.00;;;;;;;21.35;34.14;152645.50;5065783;28;20035;-64
2023/06/21 09:59:37;;;;;;;2.40;2.17;;;;;;;21.31;34.86;152636.44;5065434;28;20041;-64
2023/06/21 10:02:04;;;;;;;2.78;2.15;;;;;;;21.42;34.62;152663.59;5065725;28;20025;-65
2023/06/21 10:04:37;;;;;;;3.42;1.83;;;;;;;21.38;34.48;152653.25;5065562;28;20286;-65
2023/06/21 10:07:03;;;;;;;2.40;2.10;;;;;;;21.15;34.39;152595.06;5065603;28;20036;-64
2023/06/21 10:09:35;;;;;;;3.10;2.13;;;;;;;21.08;34.62;152576.97;5059711;28;20042;-64
2023/06/21 10:12:01;;;;;;;2.55;2.20;;;;;;;20.92;33.46;152536.94;5048294;28;20270;-64
2023/06/21 10:14:26;;;;;;;2.92;2.00;;;;;;;21.27;33.92;152626.09;5065593;28;20065;-65
2023/06/21 10:16:54;;;;;;;3.85;2.00;;;;;;;21.04;33.45;152569.25;5065221;28;20045;-63
2023/06/21 10:19:24;;;;;;;3.45;1.95;;;;;;;21.31;33.62;152635.16;5065197;28;20060;-64
2023/06/21 10:22:05;;;;;;;2.60;2.08;;;;;;;21.01;33.70;152560.22;5064321;28;20095;-64
2023/06/21 10:24:42;;;;;;;2.60;2.33;;;;;;;21.43;34.37;152664.88;5065238;28;20081;-64
2023/06/21 10:27:10;;;;;;;2.75;2.00;;;;;;;21.31;35.26;152636.44;5053973;28;20106;-63
2023/06/21 10:29:38;;;;;;;2.30;2.10;;;;;;;21.18;34.92;152604.13;5064832;28;20028;-64
2023/06/21 10:32:05;;;;;;;3.25;1.90;;;;;;;20.55;35.87;152443.88;5065342;28;20147;-65
2023/06/21 10:34:56;;;;;;;3.28;2.30;;;;;;;20.83;35.66;152514.97;5064439;28;20058;-64
2023/06/21 10:37:27;;;;;;;2.40;2.20;;;;;;;20.96;35.85;152548.56;5064633;28;20040;-64
2023/06/21 10:39:57;;;;;;;3.50;2.10;;;;;;;21.17;35.65;152601.53;5065069;28;20336;-64
2023/06/21 10:42:23;;;;;;;4.78;2.30;;;;;;;21.24;34.85;152617.09;5064771;28;20044;-64
2023/06/21 10:44:51;;;;;;;2.63;2.35;;;;;;;21.33;35.48;152640.31;5064568;28;20070;-64
2023/06/21 10:47:18;;;;;;;2.08;1.77;;;;;;;21.36;34.37;152649.38;5064696;28;20128;-64
2023/06/21 10:49:44;;;;;;;2.67;2.00;;;;;;;21.29;33.96;152629.97;5064424;28;20068;-65
2023/06/21 10:52:10;;;;;;;2.50;1.80;;;;;;;21.52;34.61;152688.16;5054711;28;20067;-65
2023/06/21 10:54:36;;;;;;;3.55;1.88;;;;;;;21.71;34.52;152737.31;5058771;28;20029;-66
2023/06/21 10:57:02;;;;;;;2.35;2.10;;;;;;;21.78;33.91;152754.13;5064760;28;20039;-65
2023/06/21 10:59:28;;;;;;;2.08;1.90;;;;;;;21.80;34.99;152758.00;5058869;28;20032;-65
2023/06/21 11:01:54;;;;;;;2.50;2.30;;;;;;;21.59;35.22;152706.31;5056559;28;20043;-65
2023/06/21 11:04:19;;;;;;;2.47;2.22;;;;;;;21.53;34.64;152692.09;5064022;28;20035;-66
2023/06/21 11:06:45;;;;;;;2.63;2.10;;;;;;;21.44;34.25;152668.75;5059995;28;20022;-65
2023/06/21 11:09:16;;;;;;;2.70;1.98;;;;;;;21.29;33.87;152629.97;5059069;28;20125;-64
2023/06/21 11:11:52;;;;;;;3.10;1.85;;;;;;;21.10;34.30;152583.47;5062689;28;20079;-65
2023/06/21 11:14:25;;;;;;;8.20;2.28;;;;;;;20.94;34.95;152542.13;5059173;28;20273;-65
2023/06/21 11:17:06;;;;;;;4.47;2.03;;;;;;;20.86;35.24;152524.06;5063569;28;20024;-65
2023/06/21 11:19:31;;;;;;;3.70;2.00;;;;;;;21.10;35.64;152583.47;5064485;28;20033;-66
2023/06/21 11:21:57;;;;;;;3.78;2.63;;;;;;;21.28;35.10;152628.69;5064602;28;20017;-64
2023/06/21 11:24:26;;;;;;;2.63;2.42;;;;;;;21.48;34.85;152679.09;5063788;28;20051;-64